Valdez, AK

1:12 PM AKDT on July 27, 2016 (GMT -0800)
Valdez | | Change Station

Elev 121 ft 61.13 °N, 146.25 °W | Updated 16 minutes ago

Overcast
Overcast
55 °F
Feels Like 55 °F
N
0
Wind Variable Wind from North

Today
High -- | Low -- °F
--% Chance of Precip.
Yesterday
High -- | Low -- °F
Precip. -- in
Pressure 29.92 in
Visibility 10.0 miles
Clouds Few 700 ft
Mostly Cloudy 6500 ft
Overcast 8500 ft
Dew Point 48 °F
Humidity 77%
Rainfall 0.14 in
Snow Depth Not available.
5:07 AM 10:34 PM
Last Quarter, 39% visible
METAR PAVD 272056Z 00000KT 10SM FEW007 BKN065 OVC085 13/09 A2992 RMK AO1 2047Z WEA: NONE TWR WND 24003KT
Pressure 29.92 in
Visibility 10.0 miles
Clouds Few 700 ft
Mostly Cloudy 6500 ft
Overcast 8500 ft
Dew Point 48 °F
Humidity 77%
Rainfall 0.14 in
Snow Depth Not available.
5:07 AM 10:34 PM
Last Quarter, 39% visible
METAR PAVD 272056Z 00000KT 10SM FEW007 BKN065 OVC085 13/09 A2992 RMK AO1 2047Z WEA: NONE TWR WND 24003KT

10-Day Weather Forecast

Almanac

Astronomy

Jul. 27, 2016 Rise Set
Actual Time
Civil Twilight
Nautical Twilight
Astronomical Twilight
Moon
Length of Visible Light
Length of Day
Tomorrow will be .
, % of the Moon is Illuminated

Today's Extremes

State Highs State Lows

Community

WunderPhotos

Upload Photos

1,927,937 photos uploaded!

WunderBlog® & News

Nearby

Air Quality

  Air Quality AQ Index Pollutant
Not available.

Snow Depth

Station Depth Elevation

Earthquake Activity

City Distance Mag. Time & Date
Minimum magnitude displayed is 2.5.

Coastal Water Temperatures

Place Temperature

Stations

Nearby Weather Stations

Station Location Temp. Windchill Dew Point Humidity Wind Precip. Elev Updated Type
                   

Watches & Warnings

There are currently no watches in effect.